Time;durP1;ratioP1;P1;durP2;ratioP2;P2;SDS_P1;SDS_P2;PMS_P1;PMS_P2;Temp;Humidity;BMP_temperature;BMP_pressure;BME280_temperature;BME280_humidity;BME280_pressure;Samples;Min_cycle;Max_cycle;Signal;HPM_P1;HPM_P2
2023/11/06 00:00:09;;;;;;;0.93;0.20;;;;;;;;;;5037346;28;20412;-90
2023/11/06 00:02:35;;;;;;;1.37;0.20;;;;;;;;;;5037216;28;20402;-89
2023/11/06 00:05:04;;;;;;;4.03;0.40;;;;;;;;;;5036536;28;20465;-88
2023/11/06 00:07:30;;;;;;;3.83;0.23;;;;;;;;;;5035451;28;20424;-88
2023/11/06 00:09:56;;;;;;;3.47;0.53;;;;;;;;;;5035583;28;20918;-86
2023/11/06 00:12:23;;;;;;;6.37;1.27;;;;;;;;;;5035462;28;20464;-87
2023/11/06 00:14:49;;;;;;;3.70;0.50;;;;;;;;;;5035149;28;20179;-87
2023/11/06 00:17:15;;;;;;;6.67;0.50;;;;;;;;;;5037099;28;20402;-91
2023/11/06 00:19:42;;;;;;;5.17;0.50;;;;;;;;;;5034869;28;20407;-86
2023/11/06 00:22:08;;;;;;;3.33;0.50;;;;;;;;;;5035465;28;20906;-87
2023/11/06 00:24:34;;;;;;;4.20;0.83;;;;;;;;;;5035033;28;20478;-85
2023/11/06 00:27:00;;;;;;;6.97;0.63;;;;;;;;;;5036163;28;20184;-87
2023/11/06 00:29:29;;;;;;;4.93;0.30;;;;;;;;;;5036331;28;20762;-89
2023/11/06 00:31:55;;;;;;;7.00;0.97;;;;;;;;;;5035349;28;20419;-88
2023/11/06 00:34:21;;;;;;;7.63;1.30;;;;;;;;;;5034445;28;20495;-87
2023/11/06 00:36:47;;;;;;;7.77;0.87;;;;;;;;;;5032175;28;20450;-84
2023/11/06 00:39:13;;;;;;;6.13;1.90;;;;;;;;;;5036273;28;20204;-85
2023/11/06 00:41:40;;;;;;;7.60;0.80;;;;;;;;;;5036565;28;20454;-90
2023/11/06 00:44:08;;;;;;;9.03;1.10;;;;;;;;;;5034913;28;20561;-87
2023/11/06 00:46:34;;;;;;;2.83;0.53;;;;;;;;;;5035955;28;20417;-90
2023/11/06 00:49:01;;;;;;;6.57;1.40;;;;;;;;;;5035388;28;20511;-87
2023/11/06 00:51:27;;;;;;;5.27;1.00;;;;;;;;;;5034776;28;20417;-89
2023/11/06 00:53:53;;;;;;;5.23;0.60;;;;;;;;;;5020661;28;20459;-89
2023/11/06 00:56:18;;;;;;;4.97;0.60;;;;;;;;;;5035867;28;20798;-90
2023/11/06 00:58:45;;;;;;;5.33;1.10;;;;;;;;;;5032111;28;21020;-91
2023/11/06 01:01:13;;;;;;;8.17;2.60;;;;;;;;;;5036179;28;20417;-88
2023/11/06 01:03:39;;;;;;;6.90;0.47;;;;;;;;;;5032698;28;20466;-90
2023/11/06 01:06:05;;;;;;;9.47;0.70;;;;;;;;;;5035844;28;20419;-85
2023/11/06 01:08:30;;;;;;;3.80;0.33;;;;;;;;;;5035745;28;20527;-87
2023/11/06 01:10:56;;;;;;;6.00;2.57;;;;;;;;;;5035556;28;20475;-89
2023/11/06 01:13:22;;;;;;;5.53;0.73;;;;;;;;;;5025979;28;20187;-87
2023/11/06 01:15:48;;;;;;;7.63;0.60;;;;;;;;;;5031248;28;20434;-86
2023/11/06 01:18:15;;;;;;;5.47;0.67;;;;;;;;;;5035228;28;20172;-88
2023/11/06 01:20:41;;;;;;;4.70;0.83;;;;;;;;;;5031734;28;20474;-89
2023/11/06 01:23:07;;;;;;;3.27;1.13;;;;;;;;;;5031256;28;20922;-89
2023/11/06 01:25:33;;;;;;;10.33;1.27;;;;;;;;;;5034942;28;20234;-89
2023/11/06 01:27:59;;;;;;;6.40;0.70;;;;;;;;;;5035862;28;20757;-89
2023/11/06 01:30:25;;;;;;;3.07;0.40;;;;;;;;;;5034054;28;20433;-87
2023/11/06 01:32:54;;;;;;;4.77;0.93;;;;;;;;;;5034848;28;20205;-89
2023/11/06 01:35:21;;;;;;;6.03;1.07;;;;;;;;;;5034770;28;20430;-91
2023/11/06 01:37:47;;;;;;;5.43;0.53;;;;;;;;;;5035196;28;20927;-92
2023/11/06 01:40:13;;;;;;;8.90;1.63;;;;;;;;;;5034473;28;20429;-90
2023/11/06 01:42:39;;;;;;;5.13;1.10;;;;;;;;;;5034133;28;20418;-88
2023/11/06 01:45:05;;;;;;;9.90;1.67;;;;;;;;;;5035274;28;20464;-89
2023/11/06 01:47:32;;;;;;;7.27;1.03;;;;;;;;;;5034429;28;20274;-90
2023/11/06 01:49:58;;;;;;;6.10;1.30;;;;;;;;;;5034972;28;20442;-89
2023/11/06 01:52:24;;;;;;;4.10;1.20;;;;;;;;;;5034188;28;20930;-89
2023/11/06 01:54:50;;;;;;;7.53;2.10;;;;;;;;;;5034787;28;20469;-89
2023/11/06 01:57:17;;;;;;;7.90;2.00;;;;;;;;;;5034978;28;20422;-88
2023/11/06 01:59:43;;;;;;;6.00;1.53;;;;;;;;;;5033476;28;20430;-87
2023/11/06 02:02:11;;;;;;;4.77;1.60;;;;;;;;;;5033738;28;20426;-89
2023/11/06 02:04:40;;;;;;;4.00;1.30;;;;;;;;;;5033217;28;20542;-86
2023/11/06 02:07:07;;;;;;;6.80;1.23;;;;;;;;;;5035061;28;20390;-89
2023/11/06 02:09:33;;;;;;;8.47;1.97;;;;;;;;;;5034760;28;20410;-90
2023/11/06 02:11:59;;;;;;;9.23;1.50;;;;;;;;;;5033782;28;20504;-86
2023/11/06 02:14:25;;;;;;;4.17;1.43;;;;;;;;;;5034490;28;20417;-86
2023/11/06 02:16:55;;;;;;;3.07;1.40;;;;;;;;;;5034563;28;20411;-88
2023/11/06 02:19:21;;;;;;;4.70;2.77;;;;;;;;;;5034602;28;20483;-90
2023/11/06 02:21:52;;;;;;;6.77;1.47;;;;;;;;;;5034498;28;20463;-85
2023/11/06 02:24:19;;;;;;;7.03;2.83;;;;;;;;;;5034435;28;20474;-91
2023/11/06 02:26:57;;;;;;;4.33;1.20;;;;;;;;;;5034590;28;20413;-88
2023/11/06 02:29:23;;;;;;;4.87;1.77;;;;;;;;;;5034594;28;20424;-86
2023/11/06 02:31:49;;;;;;;7.50;2.47;;;;;;;;;;5034324;28;20505;-86
2023/11/06 02:34:15;;;;;;;5.73;1.77;;;;;;;;;;5033987;28;20498;-88
2023/11/06 02:36:41;;;;;;;4.50;1.93;;;;;;;;;;5033296;28;20903;-89
2023/11/06 02:39:07;;;;;;;9.10;1.37;;;;;;;;;;5033499;28;20415;-89
2023/11/06 02:41:33;;;;;;;4.13;1.70;;;;;;;;;;5033143;28;20427;-90
2023/11/06 02:43:59;;;;;;;3.60;1.17;;;;;;;;;;5034332;28;20561;-88
2023/11/06 02:46:25;;;;;;;5.50;1.70;;;;;;;;;;5033029;28;20412;-88
2023/11/06 02:48:50;;;;;;;7.60;2.13;;;;;;;;;;5032349;28;20941;-87
2023/11/06 02:51:17;;;;;;;5.50;2.37;;;;;;;;;;5032956;28;20414;-89
2023/11/06 02:53:42;;;;;;;8.40;1.50;;;;;;;;;;5032891;28;20418;-88
2023/11/06 02:56:08;;;;;;;7.13;1.90;;;;;;;;;;5033747;28;20466;-93
2023/11/06 02:58:34;;;;;;;4.70;1.50;;;;;;;;;;5033311;28;20414;-88
2023/11/06 03:01:00;;;;;;;4.40;2.20;;;;;;;;;;5034857;28;20415;-88
2023/11/06 03:03:27;;;;;;;6.87;2.17;;;;;;;;;;5034851;28;20413;-91
2023/11/06 03:05:53;;;;;;;6.93;1.57;;;;;;;;;;5035474;28;20431;-91
2023/11/06 03:08:19;;;;;;;4.37;1.20;;;;;;;;;;5034532;28;20945;-95
2023/11/06 03:10:45;;;;;;;5.60;1.87;;;;;;;;;;5035811;28;20433;-94
2023/11/06 03:13:11;;;;;;;5.23;2.50;;;;;;;;;;5033840;28;20430;-93
2023/11/06 03:15:37;;;;;;;3.00;1.23;;;;;;;;;;5034312;28;20421;-93
2023/11/06 03:18:04;;;;;;;8.43;2.73;;;;;;;;;;5033740;28;20420;-91
2023/11/06 03:20:30;;;;;;;5.27;1.60;;;;;;;;;;5034559;28;20429;-89
2023/11/06 03:22:56;;;;;;;4.73;1.50;;;;;;;;;;5033458;28;20898;-93
2023/11/06 03:25:22;;;;;;;4.40;1.90;;;;;;;;;;5032865;28;20265;-90
2023/11/06 03:27:48;;;;;;;4.83;1.37;;;;;;;;;;5034130;28;20409;-93
2023/11/06 03:30:14;;;;;;;5.37;1.43;;;;;;;;;;5032785;28;20430;-90
2023/11/06 03:32:40;;;;;;;5.17;1.40;;;;;;;;;;5032143;28;20836;-88
2023/11/06 03:35:08;;;;;;;4.17;1.27;;;;;;;;;;5033164;28;20449;-90
2023/11/06 03:37:34;;;;;;;3.63;1.07;;;;;;;;;;5032313;28;20422;-87
2023/11/06 03:40:00;;;;;;;4.13;1.70;;;;;;;;;;5033458;28;20890;-88
2023/11/06 03:42:26;;;;;;;4.10;1.40;;;;;;;;;;5032312;28;20410;-89
2023/11/06 03:44:52;;;;;;;3.87;1.17;;;;;;;;;;5032249;28;20504;-89
2023/11/06 03:47:18;;;;;;;4.37;1.07;;;;;;;;;;5033467;28;20406;-89
2023/11/06 03:49:44;;;;;;;6.17;1.17;;;;;;;;;;5032293;28;20524;-90
2023/11/06 03:52:11;;;;;;;7.37;2.00;;;;;;;;;;5033701;28;20805;-89
2023/11/06 03:54:38;;;;;;;5.47;0.70;;;;;;;;;;5032557;28;20836;-91
2023/11/06 03:57:05;;;;;;;5.10;1.90;;;;;;;;;;5032600;28;20437;-89
2023/11/06 03:59:31;;;;;;;3.57;1.47;;;;;;;;;;5035495;28;20490;-89
2023/11/06 04:01:57;;;;;;;5.27;1.70;;;;;;;;;;5038885;28;20439;-89
2023/11/06 04:04:23;;;;;;;6.07;0.93;;;;;;;;;;5038013;28;20512;-88
2023/11/06 04:06:48;;;;;;;7.27;2.10;;;;;;;;;;5036248;28;20406;-91
2023/11/06 04:09:17;;;;;;;4.97;1.13;;;;;;;;;;5037142;28;20422;-89
2023/11/06 04:11:45;;;;;;;3.97;1.40;;;;;;;;;;5032446;28;20475;-88
2023/11/06 04:14:11;;;;;;;3.87;1.60;;;;;;;;;;5032571;28;20426;-91
2023/11/06 04:16:37;;;;;;;4.50;1.93;;;;;;;;;;5033481;28;20773;-87
2023/11/06 04:19:03;;;;;;;7.27;2.13;;;;;;;;;;5034661;28;20425;-88
2023/11/06 04:21:29;;;;;;;4.43;2.57;;;;;;;;;;5036422;28;20436;-87
2023/11/06 04:23:55;;;;;;;10.83;3.13;;;;;;;;;;5036586;28;20594;-89
2023/11/06 04:26:20;;;;;;;6.03;1.80;;;;;;;;;;5036639;28;20455;-87
2023/11/06 04:28:46;;;;;;;2.90;1.13;;;;;;;;;;5036633;28;20463;-88
2023/11/06 04:31:12;;;;;;;4.80;1.90;;;;;;;;;;5035318;28;20434;-88
2023/11/06 04:33:39;;;;;;;6.80;1.90;;;;;;;;;;5036218;28;20476;-90
2023/11/06 04:36:05;;;;;;;3.60;2.03;;;;;;;;;;5036313;28;20474;-88
2023/11/06 04:38:31;;;;;;;6.27;2.50;;;;;;;;;;5035209;28;20427;-88
2023/11/06 04:40:57;;;;;;;9.50;2.33;;;;;;;;;;5036681;28;20519;-89
2023/11/06 04:43:23;;;;;;;4.33;2.40;;;;;;;;;;5036327;28;20409;-88
2023/11/06 04:45:49;;;;;;;6.37;2.40;;;;;;;;;;5036239;28;20446;-88
2023/11/06 04:48:15;;;;;;;4.40;2.03;;;;;;;;;;5035900;28;20862;-88
2023/11/06 04:50:41;;;;;;;4.30;2.53;;;;;;;;;;5035942;28;20910;-88
2023/11/06 04:53:07;;;;;;;4.53;2.87;;;;;;;;;;5036054;28;20420;-87
2023/11/06 04:55:33;;;;;;;7.47;2.13;;;;;;;;;;5035682;28;20493;-88
2023/11/06 04:57:59;;;;;;;7.20;3.57;;;;;;;;;;5035016;28;20432;-90
2023/11/06 05:00:25;;;;;;;4.17;2.23;;;;;;;;;;5035364;28;20834;-89
2023/11/06 05:02:51;;;;;;;4.70;2.90;;;;;;;;;;5035886;28;20510;-89
2023/11/06 05:05:17;;;;;;;5.80;3.60;;;;;;;;;;5034739;28;20316;-88
2023/11/06 05:07:42;;;;;;;6.43;2.50;;;;;;;;;;5035565;28;20907;-87
2023/11/06 05:10:08;;;;;;;7.70;2.97;;;;;;;;;;5035553;28;20425;-88
2023/11/06 05:12:37;;;;;;;6.03;3.20;;;;;;;;;;5034841;28;20414;-90
2023/11/06 05:15:03;;;;;;;6.00;3.77;;;;;;;;;;5035115;28;20502;-90
2023/11/06 05:17:30;;;;;;;6.43;3.00;;;;;;;;;;5036077;28;20406;-92
2023/11/06 05:19:56;;;;;;;5.37;2.40;;;;;;;;;;5035133;28;20459;-90
2023/11/06 05:22:22;;;;;;;4.80;2.73;;;;;;;;;;5034894;28;20418;-91
2023/11/06 05:24:48;;;;;;;5.07;3.00;;;;;;;;;;5036168;28;20476;-90
2023/11/06 05:27:14;;;;;;;8.50;3.57;;;;;;;;;;5036232;28;20489;-92
2023/11/06 05:29:40;;;;;;;6.20;4.33;;;;;;;;;;5035470;28;20520;-90
2023/11/06 05:32:06;;;;;;;6.60;3.60;;;;;;;;;;5035246;28;20403;-89
2023/11/06 05:34:32;;;;;;;6.73;3.77;;;;;;;;;;5035876;28;20413;-89
2023/11/06 05:36:58;;;;;;;4.10;2.90;;;;;;;;;;5035580;28;20818;-89
2023/11/06 05:39:24;;;;;;;7.53;4.10;;;;;;;;;;5034769;28;20413;-89
2023/11/06 05:41:51;;;;;;;5.83;3.20;;;;;;;;;;5034334;28;20541;-89
2023/11/06 05:44:17;;;;;;;6.00;4.37;;;;;;;;;;5034697;28;20938;-89
2023/11/06 05:46:46;;;;;;;7.20;3.37;;;;;;;;;;5035327;28;20504;-89
2023/11/06 05:49:12;;;;;;;7.13;3.80;;;;;;;;;;5033991;28;20416;-90
2023/11/06 05:51:43;;;;;;;8.63;3.30;;;;;;;;;;5035741;28;20428;-92
2023/11/06 05:54:09;;;;;;;6.10;3.73;;;;;;;;;;5034736;28;20420;-93
2023/11/06 05:56:35;;;;;;;6.23;3.30;;;;;;;;;;5035920;28;20421;-91
2023/11/06 05:59:03;;;;;;;11.67;4.70;;;;;;;;;;5035568;28;20452;-92
2023/11/06 06:01:29;;;;;;;5.97;3.80;;;;;;;;;;5034477;28;20899;-91
2023/11/06 06:03:55;;;;;;;8.20;4.00;;;;;;;;;;5026662;28;20498;-91
2023/11/06 06:06:22;;;;;;;8.23;4.13;;;;;;;;;;5022856;28;20474;-90
2023/11/06 06:08:48;;;;;;;8.37;4.07;;;;;;;;;;5035081;28;20418;-90
2023/11/06 06:11:14;;;;;;;8.10;3.90;;;;;;;;;;5034679;28;20452;-88
2023/11/06 06:13:40;;;;;;;9.10;5.10;;;;;;;;;;5022820;28;20432;-89
2023/11/06 06:16:07;;;;;;;6.50;4.40;;;;;;;;;;5031130;28;20509;-89
2023/11/06 06:18:32;;;;;;;6.03;4.23;;;;;;;;;;5027145;28;20784;-88
2023/11/06 06:20:58;;;;;;;5.23;3.37;;;;;;;;;;5016725;28;20512;-88
2023/11/06 06:23:24;;;;;;;7.63;4.00;;;;;;;;;;5013264;28;20425;-89
2023/11/06 06:25:50;;;;;;;6.13;3.70;;;;;;;;;;5014755;28;20771;-88
2023/11/06 06:28:16;;;;;;;11.47;4.23;;;;;;;;;;5014705;28;20510;-89
2023/11/06 06:30:42;;;;;;;4.33;3.67;;;;;;;;;;5013487;28;20429;-92
2023/11/06 06:33:08;;;;;;;6.03;4.33;;;;;;;;;;5014523;28;20414;-89
2023/11/06 06:35:34;;;;;;;8.33;3.53;;;;;;;;;;5014509;28;20412;-88
2023/11/06 06:38:01;;;;;;;8.23;4.20;;;;;;;;;;5014955;28;20415;-90
2023/11/06 06:40:27;;;;;;;5.47;3.90;;;;;;;;;;5014490;28;20812;-90
2023/11/06 06:42:53;;;;;;;7.80;4.00;;;;;;;;;;5013064;28;20422;-89
2023/11/06 06:45:19;;;;;;;10.53;4.37;;;;;;;;;;5013152;28;20986;-90
2023/11/06 06:47:45;;;;;;;5.33;4.10;;;;;;;;;;5013240;28;20429;-88
2023/11/06 06:50:11;;;;;;;8.23;3.90;;;;;;;;;;5014370;28;21040;-89
2023/11/06 06:52:37;;;;;;;7.70;3.43;;;;;;;;;;5014407;28;20415;-90
2023/11/06 06:55:03;;;;;;;4.30;3.07;;;;;;;;;;5014250;28;20519;-91
2023/11/06 06:57:29;;;;;;;6.37;3.30;;;;;;;;;;5014478;28;20908;-91
2023/11/06 06:59:55;;;;;;;4.93;3.30;;;;;;;;;;5014459;28;20434;-89
2023/11/06 07:02:21;;;;;;;4.60;3.27;;;;;;;;;;5013638;28;20420;-94
2023/11/06 07:04:47;;;;;;;5.10;2.87;;;;;;;;;;5016189;28;20223;-93
2023/11/06 07:07:13;;;;;;;8.80;3.87;;;;;;;;;;5017223;28;20402;-93
2023/11/06 07:09:39;;;;;;;7.97;2.47;;;;;;;;;;5014996;28;20655;-91
2023/11/06 07:12:05;;;;;;;6.93;3.30;;;;;;;;;;5014633;28;20887;-90
2023/11/06 07:14:32;;;;;;;8.17;2.97;;;;;;;;;;5013265;28;20450;-91
2023/11/06 07:17:03;;;;;;;7.57;4.13;;;;;;;;;;5014446;28;20448;-92
2023/11/06 07:19:30;;;;;;;8.03;3.03;;;;;;;;;;5014667;28;20402;-92
2023/11/06 07:21:56;;;;;;;10.40;4.30;;;;;;;;;;5015955;28;20858;-93
2023/11/06 07:24:22;;;;;;;5.60;3.00;;;;;;;;;;5015262;28;20464;-90
2023/11/06 07:26:49;;;;;;;4.43;3.27;;;;;;;;;;5014436;28;20466;-91
2023/11/06 07:29:15;;;;;;;5.37;2.43;;;;;;;;;;5013130;28;20430;-91
2023/11/06 07:31:42;;;;;;;5.00;2.10;;;;;;;;;;5013913;28;20886;-93
2023/11/06 07:34:08;;;;;;;5.80;2.80;;;;;;;;;;5014328;28;20447;-95
2023/11/06 07:36:33;;;;;;;5.07;2.73;;;;;;;;;;5014493;28;20421;-93
2023/11/06 07:38:59;;;;;;;3.93;1.90;;;;;;;;;;5014287;28;20203;-91
2023/11/06 07:41:25;;;;;;;5.93;3.00;;;;;;;;;;5014393;28;20257;-92
2023/11/06 07:43:51;;;;;;;4.43;2.53;;;;;;;;;;5014308;28;20452;-92
2023/11/06 07:46:18;;;;;;;4.10;3.30;;;;;;;;;;5014393;28;20205;-91
2023/11/06 07:48:44;;;;;;;5.80;2.87;;;;;;;;;;5014384;28;20235;-93
2023/11/06 07:51:10;;;;;;;4.10;2.37;;;;;;;;;;5015173;28;20418;-93
2023/11/06 07:53:37;;;;;;;3.70;2.60;;;;;;;;;;5016730;28;20529;-89
2023/11/06 07:56:03;;;;;;;3.73;1.43;;;;;;;;;;5017227;28;20476;-89
2023/11/06 07:58:29;;;;;;;6.63;2.63;;;;;;;;;;5026348;28;20413;-89
2023/11/06 08:00:55;;;;;;;5.40;2.17;;;;;;;;;;5037166;28;20414;-90
2023/11/06 08:03:21;;;;;;;7.47;2.63;;;;;;;;;;5035541;28;20446;-88
2023/11/06 08:05:47;;;;;;;8.93;3.03;;;;;;;;;;5024520;28;20940;-88
2023/11/06 08:08:13;;;;;;;6.20;2.80;;;;;;;;;;5035881;28;20206;-87
2023/11/06 08:10:43;;;;;;;4.60;2.30;;;;;;;;;;5036311;28;20877;-89
2023/11/06 08:13:08;;;;;;;4.43;2.00;;;;;;;;;;5035342;28;20186;-87
2023/11/06 08:15:34;;;;;;;3.90;2.03;;;;;;;;;;5036766;28;20409;-89
2023/11/06 08:18:00;;;;;;;5.60;2.70;;;;;;;;;;5035647;28;20430;-88
2023/11/06 08:20:27;;;;;;;3.77;1.90;;;;;;;;;;5036461;28;20923;-90
2023/11/06 08:22:53;;;;;;;3.73;2.00;;;;;;;;;;5035826;28;20911;-89
2023/11/06 08:25:19;;;;;;;4.93;2.53;;;;;;;;;;5035385;28;20471;-89
2023/11/06 08:27:45;;;;;;;4.57;2.23;;;;;;;;;;5035439;28;20572;-89
2023/11/06 08:30:12;;;;;;;6.70;2.63;;;;;;;;;;5035525;28;20418;-89
2023/11/06 08:32:38;;;;;;;8.13;2.27;;;;;;;;;;5035283;28;20772;-89
2023/11/06 08:35:04;;;;;;;6.53;3.00;;;;;;;;;;5036481;28;20419;-91
2023/11/06 08:37:34;;;;;;;4.20;1.57;;;;;;;;;;5036477;28;20463;-90
2023/11/06 08:40:00;;;;;;;4.47;2.50;;;;;;;;;;5036320;28;20427;-88
2023/11/06 08:42:26;;;;;;;5.83;1.87;;;;;;;;;;5036314;28;20465;-88
2023/11/06 08:44:52;;;;;;;6.17;2.00;;;;;;;;;;5035932;28;20217;-87
2023/11/06 08:47:19;;;;;;;4.57;1.90;;;;;;;;;;5034668;28;20413;-87
2023/11/06 08:49:45;;;;;;;6.70;2.17;;;;;;;;;;5036265;28;20422;-88
2023/11/06 08:52:11;;;;;;;8.20;2.83;;;;;;;;;;5035071;28;20420;-89
2023/11/06 08:54:45;;;;;;;4.23;2.67;;;;;;;;;;5035005;28;20579;-89
2023/11/06 08:57:11;;;;;;;6.47;2.57;;;;;;;;;;5035982;28;20880;-87
2023/11/06 08:59:37;;;;;;;6.10;2.17;;;;;;;;;;5035815;28;20455;-88
2023/11/06 09:02:03;;;;;;;5.00;2.27;;;;;;;;;;5035271;28;20447;-87
2023/11/06 09:04:30;;;;;;;5.33;1.80;;;;;;;;;;5034183;28;20465;-90
2023/11/06 09:06:56;;;;;;;9.80;4.13;;;;;;;;;;5034950;28;20267;-88
2023/11/06 09:09:22;;;;;;;6.73;2.77;;;;;;;;;;5034585;28;20457;-88
2023/11/06 09:11:48;;;;;;;5.00;2.40;;;;;;;;;;5036261;28;20447;-89
2023/11/06 09:14:14;;;;;;;5.80;2.07;;;;;;;;;;5036270;28;20416;-85
2023/11/06 09:16:40;;;;;;;6.30;2.03;;;;;;;;;;5038686;28;20907;-92
2023/11/06 09:19:07;;;;;;;6.73;1.47;;;;;;;;;;5034927;28;20940;-88
2023/11/06 09:21:34;;;;;;;5.60;2.43;;;;;;;;;;5035769;28;20908;-88
2023/11/06 09:24:00;;;;;;;7.73;2.90;;;;;;;;;;5034266;28;20479;-86
2023/11/06 09:26:25;;;;;;;7.77;2.40;;;;;;;;;;5034122;28;20940;-88
2023/11/06 09:28:53;;;;;;;4.30;3.00;;;;;;;;;;5035476;28;20427;-90
2023/11/06 09:31:20;;;;;;;6.47;2.77;;;;;;;;;;5035274;28;20405;-87
2023/11/06 09:33:52;;;;;;;3.63;2.07;;;;;;;;;;5035683;28;20413;-89
2023/11/06 09:36:19;;;;;;;5.20;2.23;;;;;;;;;;5034291;28;20480;-90
2023/11/06 09:38:45;;;;;;;4.70;2.10;;;;;;;;;;5034595;28;20420;-89
2023/11/06 09:41:13;;;;;;;4.77;2.07;;;;;;;;;;5035454;28;20416;-88
2023/11/06 09:43:40;;;;;;;7.67;2.50;;;;;;;;;;5035367;28;20417;-92
2023/11/06 09:46:11;;;;;;;7.73;3.20;;;;;;;;;;5035318;28;20890;-89
2023/11/06 09:48:37;;;;;;;5.20;2.10;;;;;;;;;;5035348;28;20445;-90
2023/11/06 09:51:09;;;;;;;4.93;2.27;;;;;;;;;;5035233;28;20409;-87
2023/11/06 09:53:36;;;;;;;3.90;2.00;;;;;;;;;;5034844;28;20993;-88
2023/11/06 09:56:02;;;;;;;8.20;2.90;;;;;;;;;;5033642;28;20525;-88
2023/11/06 09:58:27;;;;;;;8.10;2.60;;;;;;;;;;5033735;28;20489;-88
2023/11/06 10:00:54;;;;;;;5.20;2.20;;;;;;;;;;5034062;28;20522;-88
2023/11/06 10:03:19;;;;;;;6.60;2.53;;;;;;;;;;5034837;28;20408;-87
2023/11/06 10:05:45;;;;;;;4.80;1.90;;;;;;;;;;5033293;28;20485;-84
2023/11/06 10:08:27;;;;;;;5.93;2.70;;;;;;;;;;5034279;28;20181;-85
2023/11/06 10:11:00;;;;;;;3.40;2.10;;;;;;;;;;5034242;28;20950;-87
2023/11/06 10:13:26;;;;;;;4.80;1.90;;;;;;;;;;5034209;28;20984;-88
2023/11/06 10:15:52;;;;;;;5.43;1.60;;;;;;;;;;5034342;28;20415;-89
2023/11/06 10:18:19;;;;;;;11.10;2.53;;;;;;;;;;5032677;28;20470;-87
2023/11/06 10:20:49;;;;;;;3.97;1.57;;;;;;;;;;5032834;28;20417;-87
2023/11/06 10:23:23;;;;;;;8.10;1.33;;;;;;;;;;5033957;28;20417;-84
2023/11/06 10:25:49;;;;;;;4.47;0.90;;;;;;;;;;5033862;28;20469;-89
2023/11/06 10:28:19;;;;;;;5.70;1.80;;;;;;;;;;5033843;28;20453;-88
2023/11/06 10:30:48;;;;;;;3.23;1.40;;;;;;;;;;5032835;28;20926;-88
2023/11/06 10:33:15;;;;;;;4.33;1.90;;;;;;;;;;5032514;28;20440;-87
2023/11/06 10:35:41;;;;;;;8.57;1.70;;;;;;;;;;5032616;28;20413;-87
2023/11/06 10:38:07;;;;;;;4.17;1.20;;;;;;;;;;5032879;28;20409;-88
2023/11/06 10:40:34;;;;;;;3.80;1.50;;;;;;;;;;5034015;28;20819;-88
2023/11/06 10:43:04;;;;;;;4.60;1.23;;;;;;;;;;5034012;28;20404;-88
2023/11/06 10:45:32;;;;;;;5.30;2.00;;;;;;;;;;5034086;28;20469;-88
2023/11/06 10:48:03;;;;;;;3.83;1.20;;;;;;;;;;5033734;28;20441;-88
2023/11/06 10:50:29;;;;;;;4.50;1.77;;;;;;;;;;5032862;28;20413;-88
2023/11/06 10:52:59;;;;;;;3.30;1.23;;;;;;;;;;5033738;28;20499;-87
2023/11/06 10:55:25;;;;;;;5.13;0.83;;;;;;;;;;5033072;28;20536;-87
2023/11/06 10:57:52;;;;;;;5.63;1.07;;;;;;;;;;5024163;28;20496;-90
2023/11/06 11:00:19;;;;;;;5.23;0.67;;;;;;;;;;5033433;28;20404;-87
2023/11/06 11:02:50;;;;;;;6.97;1.80;;;;;;;;;;5033266;28;20416;-92
2023/11/06 11:05:18;;;;;;;3.73;0.77;;;;;;;;;;5033287;28;20483;-86
2023/11/06 11:07:46;;;;;;;2.80;0.80;;;;;;;;;;5033430;28;20416;-86
2023/11/06 11:10:13;;;;;;;3.00;0.30;;;;;;;;;;5033518;28;20420;-89
2023/11/06 11:12:40;;;;;;;3.97;0.70;;;;;;;;;;5032467;28;20424;-89
2023/11/06 11:15:07;;;;;;;3.17;0.77;;;;;;;;;;5033685;28;20442;-88
2023/11/06 11:17:33;;;;;;;1.80;0.60;;;;;;;;;;5033159;28;20419;-90
2023/11/06 11:20:09;;;;;;;4.27;0.80;;;;;;;;;;5033720;28;20776;-89
2023/11/06 11:22:53;;;;;;;3.90;0.90;;;;;;;;;;5033368;28;20893;-89
2023/11/06 11:25:42;;;;;;;2.57;0.70;;;;;;;;;;5033252;28;20480;-88
2023/11/06 11:28:14;;;;;;;3.90;0.80;;;;;;;;;;5032711;28;20401;-89
2023/11/06 11:30:40;;;;;;;4.70;0.70;;;;;;;;;;5032242;28;20425;-88
2023/11/06 11:33:06;;;;;;;3.53;0.40;;;;;;;;;;5031739;28;20420;-85
2023/11/06 11:35:38;;;;;;;5.80;0.60;;;;;;;;;;5033152;28;20170;-88
2023/11/06 11:38:04;;;;;;;4.90;0.93;;;;;;;;;;5033163;28;20832;-89
2023/11/06 11:40:39;;;;;;;5.63;0.50;;;;;;;;;;5033471;28;20417;-90
2023/11/06 11:43:23;;;;;;;3.00;0.47;;;;;;;;;;5033251;28;20446;-88
2023/11/06 11:45:50;;;;;;;4.70;0.37;;;;;;;;;;5033028;28;20466;-89
2023/11/06 11:48:16;;;;;;;2.07;0.37;;;;;;;;;;5035277;28;20411;-88
2023/11/06 11:50:42;;;;;;;5.67;0.50;;;;;;;;;;5036099;28;20810;-88
2023/11/06 11:53:11;;;;;;;2.80;0.47;;;;;;;;;;5033289;28;20414;-88
2023/11/06 11:55:37;;;;;;;3.40;0.53;;;;;;;;;;5033239;28;20449;-89
2023/11/06 11:58:05;;;;;;;3.80;0.77;;;;;;;;;;5033264;28;20396;-90
2023/11/06 12:00:34;;;;;;;4.03;0.70;;;;;;;;;;5033331;28;20406;-89
2023/11/06 12:03:07;;;;;;;4.97;0.93;;;;;;;;;;5031658;28;20416;-89
2023/11/06 12:05:34;;;;;;;5.80;0.70;;;;;;;;;;5032915;28;20545;-88
2023/11/06 12:08:00;;;;;;;5.50;0.40;;;;;;;;;;5032972;28;20415;-89
2023/11/06 12:10:29;;;;;;;3.90;0.93;;;;;;;;;;5031641;28;20428;-91
2023/11/06 12:12:58;;;;;;;2.80;0.57;;;;;;;;;;5031880;28;20503;-86
2023/11/06 12:15:32;;;;;;;4.33;0.70;;;;;;;;;;5032972;28;20418;-88
2023/11/06 12:18:06;;;;;;;3.23;0.67;;;;;;;;;;5031536;28;20910;-88
2023/11/06 12:20:32;;;;;;;7.40;1.37;;;;;;;;;;5033239;28;20443;-87
2023/11/06 12:22:59;;;;;;;4.13;1.10;;;;;;;;;;5032907;28;20411;-88
2023/11/06 12:25:30;;;;;;;5.30;0.70;;;;;;;;;;5032835;28;21025;-88
2023/11/06 12:28:02;;;;;;;6.67;1.30;;;;;;;;;;5032754;28;20443;-90
2023/11/06 12:30:28;;;;;;;6.17;1.67;;;;;;;;;;5031752;28;20429;-86
2023/11/06 12:32:54;;;;;;;5.43;0.60;;;;;;;;;;5032506;28;20401;-88
2023/11/06 12:35:21;;;;;;;3.10;0.60;;;;;;;;;;5032810;28;20806;-87
2023/11/06 12:37:51;;;;;;;6.50;0.97;;;;;;;;;;5032579;28;20442;-89
2023/11/06 12:40:18;;;;;;;5.00;0.90;;;;;;;;;;5034990;28;20404;-86
2023/11/06 12:42:45;;;;;;;3.90;0.50;;;;;;;;;;5036168;28;20501;-87
2023/11/06 12:45:35;;;;;;;4.20;0.60;;;;;;;;;;5035556;28;20510;-89
2023/11/06 12:48:02;;;;;;;4.57;0.30;;;;;;;;;;5028659;28;20413;-88
2023/11/06 12:50:34;;;;;;;1.40;0.27;;;;;;;;;;5035652;28;20416;-88
2023/11/06 12:53:00;;;;;;;9.30;0.93;;;;;;;;;;5033398;28;20397;-88
2023/11/06 12:55:28;;;;;;;7.20;1.43;;;;;;;;;;5035305;28;20457;-86
2023/11/06 12:58:02;;;;;;;6.33;0.70;;;;;;;;;;5035736;28;20185;-87
2023/11/06 13:00:29;;;;;;;3.40;0.70;;;;;;;;;;5031447;28;20508;-89
2023/11/06 13:02:56;;;;;;;5.30;0.77;;;;;;;;;;5028205;28;20410;-88
2023/11/06 13:05:23;;;;;;;6.70;0.97;;;;;;;;;;5035462;28;20566;-87
2023/11/06 13:07:51;;;;;;;5.03;0.70;;;;;;;;;;5035650;28;20409;-86
2023/11/06 13:10:18;;;;;;;1.27;0.20;;;;;;;;;;5035648;28;20421;-87
2023/11/06 13:12:43;;;;;;;3.23;0.47;;;;;;;;;;5035632;28;20480;-88
2023/11/06 13:15:10;;;;;;;3.70;0.60;;;;;;;;;;5034205;28;20421;-87
2023/11/06 13:17:37;;;;;;;4.57;0.87;;;;;;;;;;5035021;28;20413;-85
2023/11/06 13:20:04;;;;;;;5.63;1.80;;;;;;;;;;5035403;28;20416;-87
2023/11/06 13:22:31;;;;;;;3.07;0.50;;;;;;;;;;5035349;28;20397;-88
2023/11/06 13:24:56;;;;;;;3.97;0.50;;;;;;;;;;5035198;28;20475;-86
2023/11/06 13:27:23;;;;;;;2.20;0.77;;;;;;;;;;5034033;28;20413;-86
2023/11/06 13:29:50;;;;;;;5.90;0.80;;;;;;;;;;5035282;28;20170;-86
2023/11/06 13:32:16;;;;;;;4.30;0.77;;;;;;;;;;5034474;28;20421;-89
2023/11/06 13:34:42;;;;;;;2.70;0.30;;;;;;;;;;5034479;28;20783;-86
2023/11/06 13:37:07;;;;;;;3.83;0.83;;;;;;;;;;5034436;28;20201;-87
2023/11/06 13:39:33;;;;;;;2.50;0.70;;;;;;;;;;5026617;28;20196;-85
2023/11/06 13:42:01;;;;;;;4.83;1.10;;;;;;;;;;5034461;28;20178;-84
2023/11/06 13:44:28;;;;;;;2.63;0.40;;;;;;;;;;5034271;28;20201;-87
2023/11/06 13:46:54;;;;;;;1.20;0.80;;;;;;;;;;5033837;28;20451;-86
2023/11/06 13:49:21;;;;;;;11.33;1.17;;;;;;;;;;5031339;28;20413;-85
2023/11/06 13:51:48;;;;;;;3.80;0.37;;;;;;;;;;5033857;28;20504;-87
2023/11/06 13:54:21;;;;;;;4.37;0.43;;;;;;;;;;5033518;28;20457;-87
2023/11/06 13:56:52;;;;;;;9.10;0.97;;;;;;;;;;5034226;28;20424;-85
2023/11/06 13:59:23;;;;;;;4.07;0.40;;;;;;;;;;5034096;28;20908;-85
2023/11/06 14:01:49;;;;;;;5.13;0.57;;;;;;;;;;5040745;28;20421;-86
2023/11/06 14:04:16;;;;;;;9.57;1.03;;;;;;;;;;5033400;28;20897;-85
2023/11/06 14:06:42;;;;;;;3.83;0.40;;;;;;;;;;5033673;28;20405;-86
2023/11/06 14:11:53;;;;;;;7.90;0.50;;;;;;;;;;5033543;28;20484;-86
2023/11/06 14:14:19;;;;;;;7.03;1.40;;;;;;;;;;5033977;28;20936;-86
2023/11/06 14:16:46;;;;;;;1.63;0.20;;;;;;;;;;5032650;28;20519;-84
2023/11/06 14:19:13;;;;;;;3.53;1.07;;;;;;;;;;5032477;28;20170;-85
2023/11/06 14:21:39;;;;;;;2.60;0.20;;;;;;;;;;5034098;28;20409;-86
2023/11/06 14:24:05;;;;;;;4.63;0.40;;;;;;;;;;5032536;28;20484;-85
2023/11/06 14:26:31;;;;;;;5.93;0.53;;;;;;;;;;5032601;28;20439;-85
2023/11/06 14:28:57;;;;;;;6.10;0.67;;;;;;;;;;5033608;28;20414;-85
2023/11/06 14:31:23;;;;;;;5.60;0.90;;;;;;;;;;5033091;28;20502;-86
2023/11/06 14:33:49;;;;;;;3.00;0.30;;;;;;;;;;5032680;28;20181;-85
2023/11/06 14:36:16;;;;;;;7.00;0.87;;;;;;;;;;5032215;28;20202;-86
2023/11/06 14:38:42;;;;;;;6.23;1.00;;;;;;;;;;5033431;28;20413;-85
2023/11/06 14:41:08;;;;;;;6.80;0.73;;;;;;;;;;5033695;28;20408;-86
2023/11/06 14:43:34;;;;;;;5.88;0.63;;;;;;;;;;5032533;28;20445;-86